Cincinnati, OH

5:33 PM EDT on July 30, 2016 (GMT -0400)
APRSWXNET | | Change Station

Elev 498 ft 39.10 °N, 84.50 °W | Updated 45 minutes ago

Mostly Cloudy
Mostly Cloudy
86 °F
Feels Like 89 °F
N
3
Wind Variable Wind from SSW
Gusts 11.0 mph

Today
High -- | Low -- °F
--% Chance of Precip.
Yesterday
High -- | Low -- °F
Precip. -- in
Pressure 29.92 in
Visibility 10.0 miles
Clouds Mostly Cloudy 5000 ft
Heat Index 89 °F
Dew Point 67 °F
Humidity 54%
Rainfall in
Snow Depth Not available.
6:37 AM 8:51 PM
Waning Crescent, 11% visible
METAR KLUK 302053Z 23008KT 10SM BKN050 29/20 A2993 RMK AO2 SLP131 T02890200 56013
Pressure 29.92 in
Visibility 10.0 miles
Clouds Mostly Cloudy 5000 ft
Heat Index 89 °F
Dew Point 67 °F
Humidity 54%
Rainfall in
Snow Depth Not available.
6:37 AM 8:51 PM
Waning Crescent, 11% visible
METAR KLUK 302053Z 23008KT 10SM BKN050 29/20 A2993 RMK AO2 SLP131 T02890200 56013

10-Day Weather Forecast

Almanac

Astronomy

Jul. 30, 2016 Rise Set
Actual Time
Civil Twilight
Nautical Twilight
Astronomical Twilight
Moon
Length of Visible Light
Length of Day
Tomorrow will be .
, % of the Moon is Illuminated

Today's Extremes

State Highs State Lows

Community

WunderPhotos

Upload Photos

1,928,654 photos uploaded!

WunderBlog® & News

Nearby

Air Quality

  Air Quality AQ Index Pollutant
Not available.

Snow Depth

Station Depth Elevation

Earthquake Activity

City Distance Mag. Time & Date
Minimum magnitude displayed is 2.5.

Coastal Water Temperatures

Place Temperature

Stations

Nearby Weather Stations

Station Location Temp. Windchill Dew Point Humidity Wind Precip. Elev Updated Type
                   

Watches & Warnings

There are currently no watches in effect.